sensor_id;sensor_type;location;lat;lon;timestamp;temperature;humidity
15156;DHT22;7678;50.058;8.306;2022-07-31T00:00:52;21.10;48.60
15156;DHT22;7678;50.058;8.306;2022-07-31T00:03:20;21.20;49.20
15156;DHT22;7678;50.058;8.306;2022-07-31T00:05:50;21.20;49.90
15156;DHT22;7678;50.058;8.306;2022-07-31T00:08:19;21.20;51.00
15156;DHT22;7678;50.058;8.306;2022-07-31T00:10:51;20.90;51.70
15156;DHT22;7678;50.058;8.306;2022-07-31T00:13:19;20.90;51.20
15156;DHT22;7678;50.058;8.306;2022-07-31T00:16:08;20.70;51.60
15156;DHT22;7678;50.058;8.306;2022-07-31T00:18:36;20.60;51.00
15156;DHT22;7678;50.058;8.306;2022-07-31T00:21:09;20.70;49.40
15156;DHT22;7678;50.058;8.306;2022-07-31T00:23:41;20.70;49.30
15156;DHT22;7678;50.058;8.306;2022-07-31T00:26:16;20.80;50.30
15156;DHT22;7678;50.058;8.306;2022-07-31T00:28:44;20.90;50.80
15156;DHT22;7678;50.058;8.306;2022-07-31T00:31:18;20.90;51.00
15156;DHT22;7678;50.058;8.306;2022-07-31T00:33:47;20.70;51.80
15156;DHT22;7678;50.058;8.306;2022-07-31T00:36:16;20.70;51.60
15156;DHT22;7678;50.058;8.306;2022-07-31T00:38:48;20.40;52.20
15156;DHT22;7678;50.058;8.306;2022-07-31T00:41:18;20.30;52.90
15156;DHT22;7678;50.058;8.306;2022-07-31T00:43:51;20.40;52.90
15156;DHT22;7678;50.058;8.306;2022-07-31T00:46:22;20.30;53.10
15156;DHT22;7678;50.058;8.306;2022-07-31T00:48:55;20.30;53.30
15156;DHT22;7678;50.058;8.306;2022-07-31T00:51:23;20.30;53.50
15156;DHT22;7678;50.058;8.306;2022-07-31T00:53:53;20.40;54.10
15156;DHT22;7678;50.058;8.306;2022-07-31T00:56:21;20.30;53.30
15156;DHT22;7678;50.058;8.306;2022-07-31T00:58:52;20.30;53.30
15156;DHT22;7678;50.058;8.306;2022-07-31T01:01:30;20.40;53.70
15156;DHT22;7678;50.058;8.306;2022-07-31T01:03:58;20.10;54.50
15156;DHT22;7678;50.058;8.306;2022-07-31T01:06:26;20.20;55.50
15156;DHT22;7678;50.058;8.306;2022-07-31T01:08:56;20.10;54.90
15156;DHT22;7678;50.058;8.306;2022-07-31T01:11:31;20.00;55.10
15156;DHT22;7678;50.058;8.306;2022-07-31T01:14:06;20.00;54.00
15156;DHT22;7678;50.058;8.306;2022-07-31T01:16:37;19.90;53.80
15156;DHT22;7678;50.058;8.306;2022-07-31T01:19:14;20.00;54.30
15156;DHT22;7678;50.058;8.306;2022-07-31T01:21:54;20.20;55.40
15156;DHT22;7678;50.058;8.306;2022-07-31T01:24:40;20.00;54.70
15156;DHT22;7678;50.058;8.306;2022-07-31T01:27:26;19.80;55.60
15156;DHT22;7678;50.058;8.306;2022-07-31T01:30:17;19.60;56.60
15156;DHT22;7678;50.058;8.306;2022-07-31T01:32:47;19.50;56.90
15156;DHT22;7678;50.058;8.306;2022-07-31T01:35:19;19.50;56.80
15156;DHT22;7678;50.058;8.306;2022-07-31T01:37:51;19.70;54.60
15156;DHT22;7678;50.058;8.306;2022-07-31T01:40:27;19.80;53.80
15156;DHT22;7678;50.058;8.306;2022-07-31T01:43:00;19.70;53.40
15156;DHT22;7678;50.058;8.306;2022-07-31T01:45:32;19.70;53.70
15156;DHT22;7678;50.058;8.306;2022-07-31T01:48:02;19.60;54.20
15156;DHT22;7678;50.058;8.306;2022-07-31T01:50:32;19.60;55.10
15156;DHT22;7678;50.058;8.306;2022-07-31T01:53:12;19.80;54.80
15156;DHT22;7678;50.058;8.306;2022-07-31T01:55:41;19.50;55.40
15156;DHT22;7678;50.058;8.306;2022-07-31T01:58:33;19.50;55.30
15156;DHT22;7678;50.058;8.306;2022-07-31T02:01:05;19.60;55.30
15156;DHT22;7678;50.058;8.306;2022-07-31T02:03:38;19.60;54.80
15156;DHT22;7678;50.058;8.306;2022-07-31T02:06:12;19.60;56.10
15156;DHT22;7678;50.058;8.306;2022-07-31T02:08:43;19.60;56.90
15156;DHT22;7678;50.058;8.306;2022-07-31T02:11:12;19.50;55.90
15156;DHT22;7678;50.058;8.306;2022-07-31T02:13:42;19.60;56.60
15156;DHT22;7678;50.058;8.306;2022-07-31T02:16:13;19.20;57.50
15156;DHT22;7678;50.058;8.306;2022-07-31T02:18:42;19.10;58.80
15156;DHT22;7678;50.058;8.306;2022-07-31T02:21:10;19.10;58.70
15156;DHT22;7678;50.058;8.306;2022-07-31T02:23:38;19.20;57.90
15156;DHT22;7678;50.058;8.306;2022-07-31T02:26:17;19.10;58.20
15156;DHT22;7678;50.058;8.306;2022-07-31T02:28:46;18.80;58.60
15156;DHT22;7678;50.058;8.306;2022-07-31T02:31:17;18.70;58.40
15156;DHT22;7678;50.058;8.306;2022-07-31T02:33:50;18.90;57.40
15156;DHT22;7678;50.058;8.306;2022-07-31T02:36:20;19.10;57.90
15156;DHT22;7678;50.058;8.306;2022-07-31T02:38:50;18.90;57.90
15156;DHT22;7678;50.058;8.306;2022-07-31T02:41:21;19.10;57.50
15156;DHT22;7678;50.058;8.306;2022-07-31T02:43:50;19.30;57.30
15156;DHT22;7678;50.058;8.306;2022-07-31T02:46:21;19.30;56.80
15156;DHT22;7678;50.058;8.306;2022-07-31T02:48:50;19.30;56.60
15156;DHT22;7678;50.058;8.306;2022-07-31T02:51:18;19.10;57.50
15156;DHT22;7678;50.058;8.306;2022-07-31T02:53:51;18.90;58.10
15156;DHT22;7678;50.058;8.306;2022-07-31T02:56:26;18.90;58.10
15156;DHT22;7678;50.058;8.306;2022-07-31T02:58:55;18.70;59.20
15156;DHT22;7678;50.058;8.306;2022-07-31T03:01:25;18.60;59.10
15156;DHT22;7678;50.058;8.306;2022-07-31T03:03:53;18.60;59.30
15156;DHT22;7678;50.058;8.306;2022-07-31T03:06:21;18.50;59.70
15156;DHT22;7678;50.058;8.306;2022-07-31T03:08:49;18.30;59.70
15156;DHT22;7678;50.058;8.306;2022-07-31T03:11:19;18.30;59.60
15156;DHT22;7678;50.058;8.306;2022-07-31T03:13:50;18.30;59.10
15156;DHT22;7678;50.058;8.306;2022-07-31T03:16:20;18.10;59.90
15156;DHT22;7678;50.058;8.306;2022-07-31T03:18:50;18.10;61.20
15156;DHT22;7678;50.058;8.306;2022-07-31T03:21:20;18.00;61.40
15156;DHT22;7678;50.058;8.306;2022-07-31T03:23:49;18.00;61.90
15156;DHT22;7678;50.058;8.306;2022-07-31T03:26:18;18.00;60.90
15156;DHT22;7678;50.058;8.306;2022-07-31T03:28:49;17.90;60.90
15156;DHT22;7678;50.058;8.306;2022-07-31T03:31:19;17.90;60.80
15156;DHT22;7678;50.058;8.306;2022-07-31T03:33:47;17.80;61.30
15156;DHT22;7678;50.058;8.306;2022-07-31T03:36:17;17.90;61.10
15156;DHT22;7678;50.058;8.306;2022-07-31T03:38:45;17.80;60.30
15156;DHT22;7678;50.058;8.306;2022-07-31T03:41:25;17.90;61.00
15156;DHT22;7678;50.058;8.306;2022-07-31T03:43:53;17.80;59.80
15156;DHT22;7678;50.058;8.306;2022-07-31T03:46:25;17.80;59.90
15156;DHT22;7678;50.058;8.306;2022-07-31T03:48:53;17.80;60.00
15156;DHT22;7678;50.058;8.306;2022-07-31T03:51:23;17.80;60.50
15156;DHT22;7678;50.058;8.306;2022-07-31T03:53:51;17.80;59.90
15156;DHT22;7678;50.058;8.306;2022-07-31T03:56:20;17.90;59.80
15156;DHT22;7678;50.058;8.306;2022-07-31T03:58:48;17.90;59.70
15156;DHT22;7678;50.058;8.306;2022-07-31T04:01:18;17.90;59.60
15156;DHT22;7678;50.058;8.306;2022-07-31T04:03:47;18.00;58.90
15156;DHT22;7678;50.058;8.306;2022-07-31T04:06:15;18.00;59.90
15156;DHT22;7678;50.058;8.306;2022-07-31T04:08:45;18.00;59.10
15156;DHT22;7678;50.058;8.306;2022-07-31T04:11:14;18.10;59.50
15156;DHT22;7678;50.058;8.306;2022-07-31T04:13:42;18.20;59.60
15156;DHT22;7678;50.058;8.306;2022-07-31T04:16:10;18.10;59.80
15156;DHT22;7678;50.058;8.306;2022-07-31T04:18:38;18.10;60.60
15156;DHT22;7678;50.058;8.306;2022-07-31T04:21:06;18.00;60.40
15156;DHT22;7678;50.058;8.306;2022-07-31T04:23:37;18.20;59.90
15156;DHT22;7678;50.058;8.306;2022-07-31T04:26:16;18.30;60.20
15156;DHT22;7678;50.058;8.306;2022-07-31T04:28:51;18.30;59.60
15156;DHT22;7678;50.058;8.306;2022-07-31T04:31:19;18.30;60.00
15156;DHT22;7678;50.058;8.306;2022-07-31T04:33:48;18.40;59.20
15156;DHT22;7678;50.058;8.306;2022-07-31T04:36:22;18.50;59.40
15156;DHT22;7678;50.058;8.306;2022-07-31T04:38:56;18.30;60.30
15156;DHT22;7678;50.058;8.306;2022-07-31T04:41:26;18.30;60.60
15156;DHT22;7678;50.058;8.306;2022-07-31T04:43:55;18.20;60.50
15156;DHT22;7678;50.058;8.306;2022-07-31T04:46:25;18.20;60.70
15156;DHT22;7678;50.058;8.306;2022-07-31T04:48:53;18.40;59.80
15156;DHT22;7678;50.058;8.306;2022-07-31T04:51:23;18.40;59.70
15156;DHT22;7678;50.058;8.306;2022-07-31T04:53:51;18.40;59.90
15156;DHT22;7678;50.058;8.306;2022-07-31T04:56:19;18.50;59.90
15156;DHT22;7678;50.058;8.306;2022-07-31T04:59:06;18.60;60.00
15156;DHT22;7678;50.058;8.306;2022-07-31T05:01:35;18.80;60.30
15156;DHT22;7678;50.058;8.306;2022-07-31T05:04:04;19.00;58.40
15156;DHT22;7678;50.058;8.306;2022-07-31T05:06:37;19.10;58.50
15156;DHT22;7678;50.058;8.306;2022-07-31T05:09:13;18.90;59.30
15156;DHT22;7678;50.058;8.306;2022-07-31T05:11:48;18.80;58.60
15156;DHT22;7678;50.058;8.306;2022-07-31T05:14:19;18.90;58.50
15156;DHT22;7678;50.058;8.306;2022-07-31T05:16:48;19.00;58.20
15156;DHT22;7678;50.058;8.306;2022-07-31T05:19:17;19.20;58.90
15156;DHT22;7678;50.058;8.306;2022-07-31T05:21:46;19.10;57.60
15156;DHT22;7678;50.058;8.306;2022-07-31T05:24:21;19.30;57.90
15156;DHT22;7678;50.058;8.306;2022-07-31T05:27:00;19.50;58.70
15156;DHT22;7678;50.058;8.306;2022-07-31T05:29:29;19.60;58.00
15156;DHT22;7678;50.058;8.306;2022-07-31T05:31:58;19.80;58.00
15156;DHT22;7678;50.058;8.306;2022-07-31T05:34:29;19.90;59.40
15156;DHT22;7678;50.058;8.306;2022-07-31T05:36:57;19.80;59.10
15156;DHT22;7678;50.058;8.306;2022-07-31T05:39:27;19.90;57.90
15156;DHT22;7678;50.058;8.306;2022-07-31T05:41:55;19.90;58.80
15156;DHT22;7678;50.058;8.306;2022-07-31T05:44:23;19.80;58.40
15156;DHT22;7678;50.058;8.306;2022-07-31T05:46:53;19.90;59.10
15156;DHT22;7678;50.058;8.306;2022-07-31T05:49:20;19.90;58.30
15156;DHT22;7678;50.058;8.306;2022-07-31T05:51:52;19.90;60.40
15156;DHT22;7678;50.058;8.306;2022-07-31T05:54:21;19.90;61.00
15156;DHT22;7678;50.058;8.306;2022-07-31T05:56:51;19.80;60.50
15156;DHT22;7678;50.058;8.306;2022-07-31T05:59:19;19.80;61.00
15156;DHT22;7678;50.058;8.306;2022-07-31T06:01:47;19.90;59.00
15156;DHT22;7678;50.058;8.306;2022-07-31T06:04:19;19.90;62.00
15156;DHT22;7678;50.058;8.306;2022-07-31T06:06:49;20.00;59.40
15156;DHT22;7678;50.058;8.306;2022-07-31T06:09:20;20.10;58.40
15156;DHT22;7678;50.058;8.306;2022-07-31T06:11:48;20.30;59.40
15156;DHT22;7678;50.058;8.306;2022-07-31T06:14:16;20.40;59.10
15156;DHT22;7678;50.058;8.306;2022-07-31T06:16:46;20.50;59.80
15156;DHT22;7678;50.058;8.306;2022-07-31T06:19:15;20.50;57.80
15156;DHT22;7678;50.058;8.306;2022-07-31T06:21:54;20.60;58.70
15156;DHT22;7678;50.058;8.306;2022-07-31T06:24:24;20.40;57.00
15156;DHT22;7678;50.058;8.306;2022-07-31T06:26:55;20.50;57.70
15156;DHT22;7678;50.058;8.306;2022-07-31T06:29:23;20.50;57.70
15156;DHT22;7678;50.058;8.306;2022-07-31T06:32:08;20.70;58.00
15156;DHT22;7678;50.058;8.306;2022-07-31T06:34:36;20.50;56.00
15156;DHT22;7678;50.058;8.306;2022-07-31T06:37:05;20.50;57.80
15156;DHT22;7678;50.058;8.306;2022-07-31T06:39:33;20.80;55.20
15156;DHT22;7678;50.058;8.306;2022-07-31T06:42:23;20.80;53.90
15156;DHT22;7678;50.058;8.306;2022-07-31T06:44:51;20.90;54.70
15156;DHT22;7678;50.058;8.306;2022-07-31T06:47:23;21.10;54.70
15156;DHT22;7678;50.058;8.306;2022-07-31T06:49:52;21.20;52.70
15156;DHT22;7678;50.058;8.306;2022-07-31T06:52:22;21.30;53.30
15156;DHT22;7678;50.058;8.306;2022-07-31T06:54:50;21.20;51.80
15156;DHT22;7678;50.058;8.306;2022-07-31T06:57:20;21.50;52.70
15156;DHT22;7678;50.058;8.306;2022-07-31T06:59:48;21.70;53.80
15156;DHT22;7678;50.058;8.306;2022-07-31T07:02:16;22.00;52.20
15156;DHT22;7678;50.058;8.306;2022-07-31T07:04:44;22.10;51.80
15156;DHT22;7678;50.058;8.306;2022-07-31T07:07:35;21.80;50.00
15156;DHT22;7678;50.058;8.306;2022-07-31T07:10:04;21.90;50.90
15156;DHT22;7678;50.058;8.306;2022-07-31T07:12:34;22.00;51.90
15156;DHT22;7678;50.058;8.306;2022-07-31T07:15:03;22.20;50.60
15156;DHT22;7678;50.058;8.306;2022-07-31T07:17:31;22.30;50.00
15156;DHT22;7678;50.058;8.306;2022-07-31T07:20:01;22.60;51.50
15156;DHT22;7678;50.058;8.306;2022-07-31T07:22:29;22.30;50.00
15156;DHT22;7678;50.058;8.306;2022-07-31T07:25:00;22.30;51.60
15156;DHT22;7678;50.058;8.306;2022-07-31T07:27:28;22.20;51.20
15156;DHT22;7678;50.058;8.306;2022-07-31T07:29:56;22.10;53.30
15156;DHT22;7678;50.058;8.306;2022-07-31T07:32:24;22.00;51.10
15156;DHT22;7678;50.058;8.306;2022-07-31T07:34:54;22.30;51.80
15156;DHT22;7678;50.058;8.306;2022-07-31T07:37:26;22.30;50.50
15156;DHT22;7678;50.058;8.306;2022-07-31T07:39:56;22.30;52.00
15156;DHT22;7678;50.058;8.306;2022-07-31T07:42:31;22.30;50.70
15156;DHT22;7678;50.058;8.306;2022-07-31T07:45:00;22.50;51.30
15156;DHT22;7678;50.058;8.306;2022-07-31T07:47:34;22.50;51.10
15156;DHT22;7678;50.058;8.306;2022-07-31T07:50:22;22.70;50.80
15156;DHT22;7678;50.058;8.306;2022-07-31T07:52:55;22.90;50.90
15156;DHT22;7678;50.058;8.306;2022-07-31T07:55:24;23.00;50.20
15156;DHT22;7678;50.058;8.306;2022-07-31T07:57:53;23.30;49.40
15156;DHT22;7678;50.058;8.306;2022-07-31T08:00:22;23.50;48.20
15156;DHT22;7678;50.058;8.306;2022-07-31T08:02:51;23.70;48.30
15156;DHT22;7678;50.058;8.306;2022-07-31T08:05:41;23.60;48.60
15156;DHT22;7678;50.058;8.306;2022-07-31T08:08:09;23.40;50.50
15156;DHT22;7678;50.058;8.306;2022-07-31T08:10:37;23.80;49.10
15156;DHT22;7678;50.058;8.306;2022-07-31T08:13:08;24.10;48.20
15156;DHT22;7678;50.058;8.306;2022-07-31T08:15:36;24.30;47.30
15156;DHT22;7678;50.058;8.306;2022-07-31T08:18:04;23.90;46.70
15156;DHT22;7678;50.058;8.306;2022-07-31T08:20:32;23.60;48.20
15156;DHT22;7678;50.058;8.306;2022-07-31T08:23:00;24.00;48.20
15156;DHT22;7678;50.058;8.306;2022-07-31T08:25:28;24.20;48.30
15156;DHT22;7678;50.058;8.306;2022-07-31T08:27:57;24.40;46.40
15156;DHT22;7678;50.058;8.306;2022-07-31T08:30:27;24.30;44.40
15156;DHT22;7678;50.058;8.306;2022-07-31T08:32:57;24.50;45.60
15156;DHT22;7678;50.058;8.306;2022-07-31T08:35:26;24.60;44.90
15156;DHT22;7678;50.058;8.306;2022-07-31T08:37:54;24.90;45.60
15156;DHT22;7678;50.058;8.306;2022-07-31T08:40:30;24.80;43.90
15156;DHT22;7678;50.058;8.306;2022-07-31T08:43:09;25.10;44.50
15156;DHT22;7678;50.058;8.306;2022-07-31T08:46:00;25.10;43.90
15156;DHT22;7678;50.058;8.306;2022-07-31T08:48:31;25.20;43.50
15156;DHT22;7678;50.058;8.306;2022-07-31T08:51:01;25.00;42.90
15156;DHT22;7678;50.058;8.306;2022-07-31T08:53:35;25.00;43.90
15156;DHT22;7678;50.058;8.306;2022-07-31T08:56:05;25.10;43.60
15156;DHT22;7678;50.058;8.306;2022-07-31T08:58:34;25.10;43.00
15156;DHT22;7678;50.058;8.306;2022-07-31T09:01:09;25.20;43.10
15156;DHT22;7678;50.058;8.306;2022-07-31T09:03:38;25.50;44.10
15156;DHT22;7678;50.058;8.306;2022-07-31T09:06:06;25.60;41.60
15156;DHT22;7678;50.058;8.306;2022-07-31T09:08:35;25.60;42.10
15156;DHT22;7678;50.058;8.306;2022-07-31T09:11:04;25.40;42.40
15156;DHT22;7678;50.058;8.306;2022-07-31T09:13:33;25.60;42.10
15156;DHT22;7678;50.058;8.306;2022-07-31T09:16:02;25.70;42.00
15156;DHT22;7678;50.058;8.306;2022-07-31T09:18:32;26.00;42.10
15156;DHT22;7678;50.058;8.306;2022-07-31T09:21:02;25.90;40.90
15156;DHT22;7678;50.058;8.306;2022-07-31T09:23:31;25.40;41.00
15156;DHT22;7678;50.058;8.306;2022-07-31T09:26:02;25.60;42.50
15156;DHT22;7678;50.058;8.306;2022-07-31T09:28:31;25.60;42.80
15156;DHT22;7678;50.058;8.306;2022-07-31T09:31:01;25.50;42.60
15156;DHT22;7678;50.058;8.306;2022-07-31T09:33:30;25.40;43.20
15156;DHT22;7678;50.058;8.306;2022-07-31T09:35:59;25.60;43.20
15156;DHT22;7678;50.058;8.306;2022-07-31T09:38:32;25.40;42.60
15156;DHT22;7678;50.058;8.306;2022-07-31T09:41:08;25.50;43.80
15156;DHT22;7678;50.058;8.306;2022-07-31T09:43:58;25.50;43.40
15156;DHT22;7678;50.058;8.306;2022-07-31T09:46:41;25.60;43.60
15156;DHT22;7678;50.058;8.306;2022-07-31T09:49:13;25.70;43.20
15156;DHT22;7678;50.058;8.306;2022-07-31T09:51:45;25.40;43.80
15156;DHT22;7678;50.058;8.306;2022-07-31T09:54:24;25.60;43.80
15156;DHT22;7678;50.058;8.306;2022-07-31T09:56:56;25.40;43.40
15156;DHT22;7678;50.058;8.306;2022-07-31T09:59:40;25.40;43.60
15156;DHT22;7678;50.058;8.306;2022-07-31T10:02:12;25.80;43.10
15156;DHT22;7678;50.058;8.306;2022-07-31T10:04:42;26.00;43.70
15156;DHT22;7678;50.058;8.306;2022-07-31T10:07:16;26.40;43.30
15156;DHT22;7678;50.058;8.306;2022-07-31T10:09:59;26.60;42.90
15156;DHT22;7678;50.058;8.306;2022-07-31T10:12:28;26.50;42.80
15156;DHT22;7678;50.058;8.306;2022-07-31T10:15:05;26.20;40.90
15156;DHT22;7678;50.058;8.306;2022-07-31T10:17:35;26.60;43.40
15156;DHT22;7678;50.058;8.306;2022-07-31T10:20:06;26.70;41.10
15156;DHT22;7678;50.058;8.306;2022-07-31T10:22:40;26.70;42.10
15156;DHT22;7678;50.058;8.306;2022-07-31T10:25:14;26.90;42.00
15156;DHT22;7678;50.058;8.306;2022-07-31T10:27:44;27.20;41.70
15156;DHT22;7678;50.058;8.306;2022-07-31T10:30:13;27.10;41.60
15156;DHT22;7678;50.058;8.306;2022-07-31T10:32:42;26.90;41.40
15156;DHT22;7678;50.058;8.306;2022-07-31T10:35:11;27.00;41.90
15156;DHT22;7678;50.058;8.306;2022-07-31T10:37:56;26.60;41.40
15156;DHT22;7678;50.058;8.306;2022-07-31T10:40:30;26.70;42.50
15156;DHT22;7678;50.058;8.306;2022-07-31T10:43:17;26.80;42.20
15156;DHT22;7678;50.058;8.306;2022-07-31T10:45:47;26.90;38.70
15156;DHT22;7678;50.058;8.306;2022-07-31T10:48:16;27.00;40.20
15156;DHT22;7678;50.058;8.306;2022-07-31T10:50:45;27.00;39.90
15156;DHT22;7678;50.058;8.306;2022-07-31T10:53:16;27.00;41.80
15156;DHT22;7678;50.058;8.306;2022-07-31T10:56:07;26.90;42.20
15156;DHT22;7678;50.058;8.306;2022-07-31T10:58:46;26.60;41.90
15156;DHT22;7678;50.058;8.306;2022-07-31T11:01:16;26.20;41.10
15156;DHT22;7678;50.058;8.306;2022-07-31T11:03:45;26.50;41.80
15156;DHT22;7678;50.058;8.306;2022-07-31T11:06:15;26.80;41.10
15156;DHT22;7678;50.058;8.306;2022-07-31T11:08:46;27.00;41.10
15156;DHT22;7678;50.058;8.306;2022-07-31T11:11:15;27.30;40.20
15156;DHT22;7678;50.058;8.306;2022-07-31T11:13:47;27.40;40.10
15156;DHT22;7678;50.058;8.306;2022-07-31T11:16:16;27.30;39.50
15156;DHT22;7678;50.058;8.306;2022-07-31T11:18:56;27.40;39.50
15156;DHT22;7678;50.058;8.306;2022-07-31T11:21:32;27.20;39.50
15156;DHT22;7678;50.058;8.306;2022-07-31T11:24:14;27.50;39.70
15156;DHT22;7678;50.058;8.306;2022-07-31T11:26:47;27.70;39.90
15156;DHT22;7678;50.058;8.306;2022-07-31T11:29:25;27.70;38.10
15156;DHT22;7678;50.058;8.306;2022-07-31T11:32:15;27.90;38.80
15156;DHT22;7678;50.058;8.306;2022-07-31T11:34:53;28.80;37.90
15156;DHT22;7678;50.058;8.306;2022-07-31T11:37:23;29.00;36.40
15156;DHT22;7678;50.058;8.306;2022-07-31T11:40:13;29.50;37.00
15156;DHT22;7678;50.058;8.306;2022-07-31T11:42:42;30.00;36.30
15156;DHT22;7678;50.058;8.306;2022-07-31T11:45:12;30.10;36.00
15156;DHT22;7678;50.058;8.306;2022-07-31T11:47:46;28.80;36.10
15156;DHT22;7678;50.058;8.306;2022-07-31T11:50:38;28.50;36.70
15156;DHT22;7678;50.058;8.306;2022-07-31T11:53:07;28.90;35.80
15156;DHT22;7678;50.058;8.306;2022-07-31T11:55:45;29.10;35.10
15156;DHT22;7678;50.058;8.306;2022-07-31T11:58:14;29.10;36.60
15156;DHT22;7678;50.058;8.306;2022-07-31T12:00:47;29.50;34.80
15156;DHT22;7678;50.058;8.306;2022-07-31T12:03:16;29.50;35.20
15156;DHT22;7678;50.058;8.306;2022-07-31T12:05:45;29.50;34.40
15156;DHT22;7678;50.058;8.306;2022-07-31T12:08:14;28.90;35.50
15156;DHT22;7678;50.058;8.306;2022-07-31T12:10:45;28.90;35.80
15156;DHT22;7678;50.058;8.306;2022-07-31T12:13:14;29.50;35.40
15156;DHT22;7678;50.058;8.306;2022-07-31T12:15:56;29.90;35.00
15156;DHT22;7678;50.058;8.306;2022-07-31T12:18:26;30.00;34.20
15156;DHT22;7678;50.058;8.306;2022-07-31T12:20:56;30.30;33.50
15156;DHT22;7678;50.058;8.306;2022-07-31T12:23:25;30.30;34.00
15156;DHT22;7678;50.058;8.306;2022-07-31T12:26:10;30.40;34.20
15156;DHT22;7678;50.058;8.306;2022-07-31T12:28:39;29.80;34.60
15156;DHT22;7678;50.058;8.306;2022-07-31T12:31:07;30.00;33.90
15156;DHT22;7678;50.058;8.306;2022-07-31T12:33:40;30.50;32.80
15156;DHT22;7678;50.058;8.306;2022-07-31T12:36:13;30.70;32.50
15156;DHT22;7678;50.058;8.306;2022-07-31T12:38:42;30.80;34.90
15156;DHT22;7678;50.058;8.306;2022-07-31T12:41:12;32.00;34.20
15156;DHT22;7678;50.058;8.306;2022-07-31T12:43:41;31.80;32.70
15156;DHT22;7678;50.058;8.306;2022-07-31T12:46:21;31.60;33.50
15156;DHT22;7678;50.058;8.306;2022-07-31T12:48:49;31.40;33.90
15156;DHT22;7678;50.058;8.306;2022-07-31T12:51:18;31.00;33.70
15156;DHT22;7678;50.058;8.306;2022-07-31T12:54:07;30.40;32.80
15156;DHT22;7678;50.058;8.306;2022-07-31T12:56:38;30.00;33.90
15156;DHT22;7678;50.058;8.306;2022-07-31T12:59:07;29.90;34.80
15156;DHT22;7678;50.058;8.306;2022-07-31T13:01:35;29.60;35.30
15156;DHT22;7678;50.058;8.306;2022-07-31T13:04:04;29.40;35.60
15156;DHT22;7678;50.058;8.306;2022-07-31T13:06:44;29.50;35.10
15156;DHT22;7678;50.058;8.306;2022-07-31T13:09:14;29.80;35.00
15156;DHT22;7678;50.058;8.306;2022-07-31T13:11:43;30.10;34.00
15156;DHT22;7678;50.058;8.306;2022-07-31T13:14:14;30.30;33.90
15156;DHT22;7678;50.058;8.306;2022-07-31T13:16:43;30.90;34.30
15156;DHT22;7678;50.058;8.306;2022-07-31T13:19:11;31.60;33.00
15156;DHT22;7678;50.058;8.306;2022-07-31T13:21:40;32.00;32.60
15156;DHT22;7678;50.058;8.306;2022-07-31T13:24:16;32.50;31.40
15156;DHT22;7678;50.058;8.306;2022-07-31T13:26:47;32.60;29.80
15156;DHT22;7678;50.058;8.306;2022-07-31T13:29:16;32.30;30.20
15156;DHT22;7678;50.058;8.306;2022-07-31T13:31:44;32.20;30.30
15156;DHT22;7678;50.058;8.306;2022-07-31T13:34:12;32.10;29.90
15156;DHT22;7678;50.058;8.306;2022-07-31T13:36:40;31.80;30.00
15156;DHT22;7678;50.058;8.306;2022-07-31T13:39:10;31.50;30.60
15156;DHT22;7678;50.058;8.306;2022-07-31T13:41:38;30.80;30.00
15156;DHT22;7678;50.058;8.306;2022-07-31T13:44:08;30.70;30.60
15156;DHT22;7678;50.058;8.306;2022-07-31T13:46:36;30.50;30.40
15156;DHT22;7678;50.058;8.306;2022-07-31T13:49:06;30.20;29.80
15156;DHT22;7678;50.058;8.306;2022-07-31T13:51:36;30.00;30.10
15156;DHT22;7678;50.058;8.306;2022-07-31T13:54:05;29.90;32.00
15156;DHT22;7678;50.058;8.306;2022-07-31T13:56:33;29.90;31.40
15156;DHT22;7678;50.058;8.306;2022-07-31T13:59:10;29.70;31.70
15156;DHT22;7678;50.058;8.306;2022-07-31T14:01:39;29.30;32.30
15156;DHT22;7678;50.058;8.306;2022-07-31T14:04:27;29.50;31.70
15156;DHT22;7678;50.058;8.306;2022-07-31T14:07:04;29.70;31.90
15156;DHT22;7678;50.058;8.306;2022-07-31T14:09:33;29.70;31.40
15156;DHT22;7678;50.058;8.306;2022-07-31T14:12:01;30.20;31.70
15156;DHT22;7678;50.058;8.306;2022-07-31T14:14:34;30.30;31.50
15156;DHT22;7678;50.058;8.306;2022-07-31T14:17:02;30.40;31.80
15156;DHT22;7678;50.058;8.306;2022-07-31T14:19:30;30.30;31.00
15156;DHT22;7678;50.058;8.306;2022-07-31T14:22:10;30.30;31.30
15156;DHT22;7678;50.058;8.306;2022-07-31T14:24:38;30.20;31.10
15156;DHT22;7678;50.058;8.306;2022-07-31T14:27:15;30.00;32.20
15156;DHT22;7678;50.058;8.306;2022-07-31T14:29:44;29.70;33.20
15156;DHT22;7678;50.058;8.306;2022-07-31T14:32:13;30.00;32.50
15156;DHT22;7678;50.058;8.306;2022-07-31T14:34:41;30.00;33.10
15156;DHT22;7678;50.058;8.306;2022-07-31T14:37:09;29.80;33.20
15156;DHT22;7678;50.058;8.306;2022-07-31T14:39:37;29.70;33.20
15156;DHT22;7678;50.058;8.306;2022-07-31T14:42:09;29.70;33.50
15156;DHT22;7678;50.058;8.306;2022-07-31T14:44:39;29.60;34.70
15156;DHT22;7678;50.058;8.306;2022-07-31T14:47:10;29.50;34.40
15156;DHT22;7678;50.058;8.306;2022-07-31T14:49:38;29.50;34.20
15156;DHT22;7678;50.058;8.306;2022-07-31T14:52:27;29.70;33.70
15156;DHT22;7678;50.058;8.306;2022-07-31T14:54:56;29.40;34.10
15156;DHT22;7678;50.058;8.306;2022-07-31T14:57:25;29.30;34.40
15156;DHT22;7678;50.058;8.306;2022-07-31T14:59:53;29.50;34.20
15156;DHT22;7678;50.058;8.306;2022-07-31T15:02:22;29.30;34.80
15156;DHT22;7678;50.058;8.306;2022-07-31T15:04:51;29.10;35.40
15156;DHT22;7678;50.058;8.306;2022-07-31T15:07:19;29.00;36.10
15156;DHT22;7678;50.058;8.306;2022-07-31T15:10:09;29.10;36.90
15156;DHT22;7678;50.058;8.306;2022-07-31T15:12:37;28.90;36.10
15156;DHT22;7678;50.058;8.306;2022-07-31T15:15:06;29.20;37.30
15156;DHT22;7678;50.058;8.306;2022-07-31T15:17:36;29.10;36.90
15156;DHT22;7678;50.058;8.306;2022-07-31T15:20:05;29.40;36.60
15156;DHT22;7678;50.058;8.306;2022-07-31T15:22:33;29.50;37.00
15156;DHT22;7678;50.058;8.306;2022-07-31T15:25:01;29.50;36.80
15156;DHT22;7678;50.058;8.306;2022-07-31T15:27:29;29.50;36.00
15156;DHT22;7678;50.058;8.306;2022-07-31T15:29:57;29.70;35.60
15156;DHT22;7678;50.058;8.306;2022-07-31T15:32:35;29.80;35.60
15156;DHT22;7678;50.058;8.306;2022-07-31T15:35:05;29.50;35.70
15156;DHT22;7678;50.058;8.306;2022-07-31T15:37:34;29.90;36.20
15156;DHT22;7678;50.058;8.306;2022-07-31T15:40:06;30.50;34.50
15156;DHT22;7678;50.058;8.306;2022-07-31T15:42:36;30.60;34.90
15156;DHT22;7678;50.058;8.306;2022-07-31T15:45:08;30.30;34.90
15156;DHT22;7678;50.058;8.306;2022-07-31T15:47:38;29.90;34.70
15156;DHT22;7678;50.058;8.306;2022-07-31T15:50:08;29.50;34.80
15156;DHT22;7678;50.058;8.306;2022-07-31T15:52:36;29.40;35.90
15156;DHT22;7678;50.058;8.306;2022-07-31T15:55:06;29.40;35.70
15156;DHT22;7678;50.058;8.306;2022-07-31T15:57:34;29.40;34.20
15156;DHT22;7678;50.058;8.306;2022-07-31T16:00:04;29.30;34.30
15156;DHT22;7678;50.058;8.306;2022-07-31T16:02:33;29.10;34.80
15156;DHT22;7678;50.058;8.306;2022-07-31T16:05:03;29.00;35.70
15156;DHT22;7678;50.058;8.306;2022-07-31T16:07:48;29.00;36.20
15156;DHT22;7678;50.058;8.306;2022-07-31T16:10:36;29.10;35.00
15156;DHT22;7678;50.058;8.306;2022-07-31T16:13:04;29.20;35.00